createdAt,value
2023-04-18T00:00:27.500Z,100.00
2023-04-18T00:02:55.102Z,100.00
2023-04-18T00:05:21.914Z,100.00
2023-04-18T00:07:48.555Z,100.00
2023-04-18T00:10:15.439Z,100.00
2023-04-18T00:12:42.834Z,100.00
2023-04-18T00:15:09.682Z,100.00
2023-04-18T00:17:39.811Z,100.00
2023-04-18T00:20:10.681Z,100.00
2023-04-18T00:22:42.968Z,100.00
2023-04-18T00:25:10.865Z,100.00
2023-04-18T00:27:38.269Z,100.00
2023-04-18T00:30:06.226Z,100.00
2023-04-18T00:32:32.753Z,100.00
2023-04-18T00:34:59.331Z,100.00
2023-04-18T00:37:25.877Z,100.00
2023-04-18T00:39:53.882Z,100.00
2023-04-18T00:42:21.847Z,100.00
2023-04-18T00:44:49.072Z,100.00
2023-04-18T00:47:17.352Z,100.00
2023-04-18T00:49:45.019Z,100.00
2023-04-18T00:52:12.668Z,100.00
2023-04-18T00:54:41.025Z,100.00
2023-04-18T00:57:08.040Z,100.00
2023-04-18T00:59:35.564Z,100.00
2023-04-18T01:02:03.813Z,100.00
2023-04-18T01:04:32.767Z,100.00
2023-04-18T01:07:00.928Z,100.00
2023-04-18T01:09:29.133Z,100.00
2023-04-18T01:11:55.571Z,100.00
2023-04-18T01:14:22.167Z,100.00
2023-04-18T01:16:48.741Z,100.00
2023-04-18T01:19:19.180Z,100.00
2023-04-18T01:21:45.723Z,100.00
2023-04-18T01:24:16.554Z,100.00
2023-04-18T01:26:45.252Z,100.00
2023-04-18T01:29:11.817Z,100.00
2023-04-18T01:31:39.440Z,100.00
2023-04-18T01:34:07.838Z,100.00
2023-04-18T01:36:35.931Z,100.00
2023-04-18T01:39:02.417Z,100.00
2023-04-18T01:41:32.203Z,100.00
2023-04-18T01:43:59.288Z,100.00
2023-04-18T01:46:26.408Z,100.00
2023-04-18T01:48:53.846Z,100.00
2023-04-18T01:51:20.958Z,100.00
2023-04-18T01:53:47.450Z,100.00
2023-04-18T01:56:14.001Z,100.00
2023-04-18T01:58:41.614Z,100.00
2023-04-18T02:01:08.703Z,100.00
2023-04-18T02:03:35.450Z,100.00
2023-04-18T02:06:04.000Z,100.00
2023-04-18T02:08:30.920Z,100.00
2023-04-18T02:10:57.405Z,100.00
2023-04-18T02:13:23.909Z,100.00
2023-04-18T02:15:50.878Z,100.00
2023-04-18T02:18:18.153Z,100.00
2023-04-18T02:20:46.331Z,100.00
2023-04-18T02:23:12.829Z,100.00
2023-04-18T02:25:39.294Z,100.00
2023-04-18T02:28:05.722Z,100.00
2023-04-18T02:30:32.427Z,100.00
2023-04-18T02:33:01.995Z,100.00
2023-04-18T02:35:29.077Z,100.00
2023-04-18T02:37:55.508Z,100.00
2023-04-18T02:40:21.990Z,100.00
2023-04-18T02:42:48.458Z,100.00
2023-04-18T02:45:15.164Z,100.00
2023-04-18T02:47:53.802Z,100.00
2023-04-18T02:50:22.590Z,100.00
2023-04-18T02:52:49.325Z,100.00
2023-04-18T02:55:18.114Z,100.00
2023-04-18T02:57:45.405Z,100.00
2023-04-18T03:00:30.529Z,100.00
2023-04-18T03:03:13.137Z,100.00
2023-04-18T03:05:49.370Z,100.00
2023-04-18T03:08:16.216Z,100.00
2023-04-18T03:10:42.966Z,100.00
2023-04-18T03:13:09.799Z,100.00
2023-04-18T03:15:37.359Z,100.00
2023-04-18T03:18:05.214Z,100.00
2023-04-18T03:20:35.022Z,100.00
2023-04-18T03:23:01.494Z,100.00
2023-04-18T03:25:30.002Z,100.00
2023-04-18T03:27:57.794Z,100.00
2023-04-18T03:30:25.466Z,100.00
2023-04-18T03:32:55.944Z,100.00
2023-04-18T03:35:22.697Z,100.00
2023-04-18T03:37:49.748Z,100.00
2023-04-18T03:40:23.415Z,100.00
2023-04-18T03:42:52.367Z,100.00
2023-04-18T03:45:19.551Z,100.00
2023-04-18T03:47:46.877Z,100.00
2023-04-18T03:50:13.750Z,100.00
2023-04-18T03:52:42.034Z,100.00
2023-04-18T03:55:09.000Z,100.00
2023-04-18T03:57:35.503Z,100.00
2023-04-18T04:00:07.932Z,100.00
2023-04-18T04:02:42.222Z,100.00
2023-04-18T04:05:11.349Z,100.00
2023-04-18T04:07:38.027Z,100.00
2023-04-18T04:10:06.125Z,100.00
2023-04-18T04:12:32.612Z,100.00
2023-04-18T04:14:59.437Z,100.00
2023-04-18T04:17:26.465Z,100.00
2023-04-18T04:19:53.112Z,100.00
2023-04-18T04:22:20.855Z,100.00
2023-04-18T04:24:47.859Z,100.00
2023-04-18T04:27:18.847Z,100.00
2023-04-18T04:29:45.824Z,100.00
2023-04-18T04:32:13.459Z,100.00
2023-04-18T04:34:41.640Z,100.00
2023-04-18T04:37:10.453Z,100.00
2023-04-18T04:39:46.153Z,100.00
2023-04-18T04:42:26.707Z,100.00
2023-04-18T04:44:59.866Z,100.00
2023-04-18T04:47:26.433Z,100.00
2023-04-18T04:49:53.888Z,100.00
2023-04-18T04:52:20.415Z,100.00
2023-04-18T04:54:47.035Z,100.00
2023-04-18T04:57:16.048Z,100.00
2023-04-18T04:59:42.675Z,100.00
2023-04-18T05:02:09.345Z,100.00
2023-04-18T05:04:36.288Z,100.00
2023-04-18T05:07:02.829Z,100.00
2023-04-18T05:09:29.305Z,100.00
2023-04-18T05:11:55.753Z,100.00
2023-04-18T05:14:22.775Z,100.00
2023-04-18T05:16:49.281Z,100.00
2023-04-18T05:19:15.766Z,100.00
2023-04-18T05:21:42.238Z,100.00
2023-04-18T05:24:08.907Z,100.00
2023-04-18T05:26:35.385Z,100.00
2023-04-18T05:29:01.918Z,100.00
2023-04-18T05:31:28.846Z,100.00
2023-04-18T05:33:55.761Z,100.00
2023-04-18T05:36:22.567Z,100.00
2023-04-18T05:38:49.085Z,100.00
2023-04-18T05:41:15.825Z,100.00
2023-04-18T05:43:44.449Z,100.00
2023-04-18T05:46:12.799Z,100.00
2023-04-18T05:48:39.357Z,100.00
2023-04-18T05:51:05.898Z,100.00
2023-04-18T05:53:32.462Z,100.00
2023-04-18T05:55:59.874Z,100.00
2023-04-18T05:58:28.647Z,100.00
2023-04-18T06:00:55.147Z,100.00
2023-04-18T06:03:21.698Z,100.00
2023-04-18T06:05:48.320Z,100.00
2023-04-18T06:08:14.802Z,100.00
2023-04-18T06:10:41.246Z,100.00
2023-04-18T06:13:07.793Z,100.00
2023-04-18T06:15:34.933Z,100.00
2023-04-18T06:18:01.508Z,100.00
2023-04-18T06:20:28.095Z,100.00
2023-04-18T06:22:54.516Z,100.00
2023-04-18T06:25:20.966Z,100.00
2023-04-18T06:27:47.454Z,100.00
2023-04-18T06:30:14.082Z,100.00
2023-04-18T06:32:40.600Z,100.00
2023-04-18T06:35:07.446Z,100.00
2023-04-18T06:37:34.160Z,100.00
2023-04-18T06:40:00.706Z,100.00
2023-04-18T06:42:27.282Z,100.00
2023-04-18T06:44:54.169Z,100.00
2023-04-18T06:47:20.636Z,100.00
2023-04-18T06:49:47.144Z,100.00
2023-04-18T06:52:13.606Z,100.00
2023-04-18T06:54:40.119Z,100.00
2023-04-18T06:57:06.618Z,100.00
2023-04-18T06:59:33.185Z,100.00
2023-04-18T07:01:59.700Z,100.00
2023-04-18T07:04:26.365Z,100.00
2023-04-18T07:06:52.932Z,100.00
2023-04-18T07:09:19.876Z,100.00
2023-04-18T07:11:46.324Z,100.00
2023-04-18T07:14:12.941Z,100.00
2023-04-18T07:16:39.662Z,100.00
2023-04-18T07:19:06.704Z,100.00
2023-04-18T07:21:33.235Z,100.00
2023-04-18T07:23:59.718Z,100.00
2023-04-18T07:26:27.549Z,100.00
2023-04-18T07:28:54.008Z,100.00
2023-04-18T07:31:20.603Z,100.00
2023-04-18T07:33:47.076Z,100.00
2023-04-18T07:36:13.765Z,100.00
2023-04-18T07:38:40.289Z,100.00
2023-04-18T07:41:06.834Z,100.00
2023-04-18T07:43:33.294Z,100.00
2023-04-18T07:45:59.894Z,100.00
2023-04-18T07:48:26.819Z,100.00
2023-04-18T07:50:53.583Z,100.00
2023-04-18T07:53:20.149Z,100.00
2023-04-18T07:55:46.675Z,100.00
2023-04-18T07:58:13.716Z,100.00
2023-04-18T08:00:42.404Z,100.00
2023-04-18T08:03:12.371Z,100.00
2023-04-18T08:05:40.541Z,100.00
2023-04-18T08:08:08.377Z,100.00
2023-04-18T08:10:35.139Z,100.00
2023-04-18T08:13:02.516Z,99.79
2023-04-18T08:15:29.156Z,99.33
2023-04-18T08:17:55.742Z,98.81
2023-04-18T08:20:23.268Z,98.75
2023-04-18T08:23:05.178Z,100.00
2023-04-18T08:25:36.063Z,98.65
2023-04-18T08:28:02.494Z,98.98
2023-04-18T08:30:29.105Z,98.49
2023-04-18T08:32:55.668Z,99.50
2023-04-18T08:35:22.272Z,99.57
2023-04-18T08:37:48.727Z,98.58
2023-04-18T08:40:15.540Z,99.15
2023-04-18T08:42:46.679Z,98.45
2023-04-18T08:45:14.205Z,98.54
2023-04-18T08:47:43.480Z,97.39
2023-04-18T08:50:10.572Z,98.16
2023-04-18T08:52:39.292Z,98.21
2023-04-18T08:55:06.315Z,97.04
2023-04-18T08:57:33.230Z,95.61
2023-04-18T09:00:02.505Z,94.19
2023-04-18T09:02:38.803Z,93.16
2023-04-18T09:05:16.537Z,95.71
2023-04-18T09:07:43.189Z,96.83
2023-04-18T09:10:10.235Z,97.01
2023-04-18T09:12:56.785Z,96.42
2023-04-18T09:15:27.036Z,95.88
2023-04-18T09:17:56.218Z,96.30
2023-04-18T09:20:27.262Z,95.11
2023-04-18T09:22:57.650Z,94.80
2023-04-18T09:25:39.098Z,95.86
2023-04-18T09:28:28.214Z,93.56
2023-04-18T09:30:56.471Z,94.93
2023-04-18T09:33:37.015Z,94.15
2023-04-18T09:36:20.051Z,95.67
2023-04-18T09:38:47.796Z,96.43
2023-04-18T09:41:18.505Z,95.57
2023-04-18T09:43:47.252Z,93.89
2023-04-18T09:46:14.784Z,94.26
2023-04-18T09:48:41.816Z,95.82
2023-04-18T09:51:11.036Z,95.20
2023-04-18T09:53:39.892Z,94.40
2023-04-18T09:56:08.552Z,94.42
2023-04-18T09:58:41.483Z,93.03
2023-04-18T10:01:08.460Z,92.53
2023-04-18T10:03:44.326Z,92.34
2023-04-18T10:06:11.775Z,94.19
2023-04-18T10:08:40.007Z,92.28
2023-04-18T10:11:06.561Z,91.24
2023-04-18T10:13:35.607Z,93.40
2023-04-18T10:16:02.938Z,92.97
2023-04-18T10:18:29.441Z,93.87
2023-04-18T10:21:05.849Z,92.42
2023-04-18T10:23:32.521Z,90.35
2023-04-18T10:25:59.219Z,90.08
2023-04-18T10:28:27.498Z,88.45
2023-04-18T10:31:04.080Z,89.13
2023-04-18T10:33:41.086Z,86.60
2023-04-18T10:36:08.884Z,87.53
2023-04-18T10:38:45.982Z,88.76
2023-04-18T10:41:30.110Z,87.90
2023-04-18T10:44:08.975Z,88.16
2023-04-18T10:46:51.074Z,88.73
2023-04-18T10:49:17.573Z,87.45
2023-04-18T10:51:45.882Z,86.62
2023-04-18T10:54:38.789Z,86.26
2023-04-18T10:57:07.706Z,86.20
2023-04-18T10:59:38.340Z,85.65
2023-04-18T11:02:19.360Z,85.23
2023-04-18T11:04:54.085Z,84.53
2023-04-18T11:07:35.573Z,83.04
2023-04-18T11:10:03.244Z,82.77
2023-04-18T11:12:35.497Z,82.54
2023-04-18T11:15:09.356Z,82.39
2023-04-18T11:17:36.142Z,82.32
2023-04-18T11:20:14.197Z,83.56
2023-04-18T11:22:58.048Z,83.03
2023-04-18T11:25:31.870Z,82.83
2023-04-18T11:28:00.424Z,81.74
2023-04-18T11:30:28.318Z,82.30
2023-04-18T11:32:55.966Z,81.56
2023-04-18T11:35:22.801Z,80.62
2023-04-18T11:37:50.259Z,79.26
2023-04-18T11:40:16.802Z,79.85
2023-04-18T11:42:43.392Z,80.16
2023-04-18T11:45:12.714Z,79.54
2023-04-18T11:47:41.611Z,80.16
2023-04-18T11:50:10.217Z,80.56
2023-04-18T11:52:37.891Z,81.75
2023-04-18T11:55:21.081Z,83.14
2023-04-18T11:57:51.806Z,83.88
2023-04-18T12:00:22.259Z,85.92
2023-04-18T12:02:51.301Z,86.80
2023-04-18T12:05:26.511Z,87.61
2023-04-18T12:07:53.395Z,88.01
2023-04-18T12:10:19.800Z,87.13
2023-04-18T12:12:54.475Z,88.64
2023-04-18T12:15:27.198Z,88.98
2023-04-18T12:18:02.077Z,88.00
2023-04-18T12:20:52.524Z,87.79
2023-04-18T12:23:40.008Z,87.46
2023-04-18T12:26:08.115Z,87.71
2023-04-18T12:28:35.396Z,86.78
2023-04-18T12:31:02.663Z,86.05
2023-04-18T12:33:30.414Z,85.64
2023-04-18T12:35:57.336Z,84.89
2023-04-18T12:38:24.002Z,83.36
2023-04-18T12:40:51.713Z,81.58
2023-04-18T12:43:19.217Z,80.72
2023-04-18T12:45:47.002Z,79.44
2023-04-18T12:48:13.925Z,78.80
2023-04-18T12:50:40.558Z,77.90
2023-04-18T12:53:07.041Z,77.03
2023-04-18T12:55:33.507Z,76.51
2023-04-18T12:58:00.681Z,73.14
2023-04-18T13:00:29.715Z,73.01
2023-04-18T13:02:56.772Z,71.84
2023-04-18T13:05:27.308Z,70.77
2023-04-18T13:08:08.635Z,69.38
2023-04-18T13:10:39.639Z,70.71
2023-04-18T13:13:06.077Z,69.65
2023-04-18T13:15:32.608Z,70.34
2023-04-18T13:18:04.476Z,70.15
2023-04-18T13:20:32.182Z,70.36
2023-04-18T13:22:58.703Z,70.24
2023-04-18T13:25:26.510Z,70.41
2023-04-18T13:27:53.332Z,67.72
2023-04-18T13:30:19.970Z,66.67
2023-04-18T13:32:47.027Z,66.23
2023-04-18T13:35:13.717Z,65.75
2023-04-18T13:37:40.198Z,66.71
2023-04-18T13:40:07.255Z,65.27
2023-04-18T13:42:34.318Z,65.85
2023-04-18T13:45:00.758Z,64.60
2023-04-18T13:47:27.485Z,65.21
2023-04-18T13:49:54.117Z,65.36
2023-04-18T13:52:20.535Z,65.60
2023-04-18T13:54:47.961Z,65.56
2023-04-18T13:57:14.674Z,66.39
2023-04-18T13:59:41.504Z,66.67
2023-04-18T14:02:09.536Z,67.04
2023-04-18T14:04:36.621Z,67.97
2023-04-18T14:07:03.688Z,67.70
2023-04-18T14:09:30.145Z,66.59
2023-04-18T14:11:58.055Z,64.86
2023-04-18T14:14:24.617Z,65.81
2023-04-18T14:16:51.165Z,65.47
2023-04-18T14:19:17.897Z,65.82
2023-04-18T14:21:44.303Z,66.59
2023-04-18T14:24:11.822Z,65.61
2023-04-18T14:26:38.340Z,66.44
2023-04-18T14:29:05.117Z,67.73
2023-04-18T14:31:31.671Z,67.33
2023-04-18T14:33:58.187Z,67.27
2023-04-18T14:36:24.622Z,68.39
2023-04-18T14:38:51.103Z,68.61
2023-04-18T14:41:17.609Z,67.87
2023-04-18T14:43:44.126Z,67.61
2023-04-18T14:46:13.560Z,67.54
2023-04-18T14:48:40.082Z,67.71
2023-04-18T14:51:06.990Z,68.15
2023-04-18T14:53:34.088Z,68.40
2023-04-18T14:56:00.639Z,68.09
2023-04-18T14:58:27.128Z,68.58
2023-04-18T15:00:53.638Z,66.55
2023-04-18T15:03:20.293Z,68.01
2023-04-18T15:05:48.389Z,67.71
2023-04-18T15:08:16.100Z,68.23
2023-04-18T15:10:42.853Z,67.22
2023-04-18T15:13:10.148Z,67.60
2023-04-18T15:15:37.857Z,67.22
2023-04-18T15:18:04.739Z,67.74
2023-04-18T15:20:31.315Z,66.26
2023-04-18T15:22:57.774Z,65.80
2023-04-18T15:25:25.938Z,65.02
2023-04-18T15:27:52.895Z,66.20
2023-04-18T15:30:19.692Z,65.91
2023-04-18T15:32:47.559Z,66.27
2023-04-18T15:35:14.240Z,68.09
2023-04-18T15:37:41.457Z,69.50
2023-04-18T15:40:10.362Z,70.47
2023-04-18T15:42:36.907Z,71.42
2023-04-18T15:45:04.411Z,71.53
2023-04-18T15:47:33.636Z,72.22
2023-04-18T15:50:00.854Z,73.38
2023-04-18T15:52:27.350Z,72.80
2023-04-18T15:54:54.488Z,73.16
2023-04-18T15:57:21.780Z,74.01
2023-04-18T15:59:48.238Z,73.93
2023-04-18T16:02:14.938Z,74.63
2023-04-18T16:04:41.443Z,76.02
2023-04-18T16:07:08.771Z,74.73
2023-04-18T16:09:35.238Z,74.96
2023-04-18T16:12:03.188Z,75.11
2023-04-18T16:14:31.194Z,74.26
2023-04-18T16:16:58.814Z,74.03
2023-04-18T16:19:25.519Z,73.83
2023-04-18T16:21:52.394Z,74.28
2023-04-18T16:24:18.944Z,74.32
2023-04-18T16:26:45.450Z,73.81
2023-04-18T16:29:11.903Z,74.41
2023-04-18T16:31:38.436Z,74.28
2023-04-18T16:34:04.875Z,74.20
2023-04-18T16:36:34.617Z,74.19
2023-04-18T16:39:01.114Z,74.45
2023-04-18T16:41:27.626Z,74.56
2023-04-18T16:43:54.053Z,75.05
2023-04-18T16:46:20.534Z,75.14
2023-04-18T16:48:47.103Z,75.48
2023-04-18T16:51:13.613Z,75.50
2023-04-18T16:53:40.024Z,74.59
2023-04-18T16:56:07.895Z,74.87
2023-04-18T16:58:34.385Z,75.57
2023-04-18T17:01:03.704Z,75.33
2023-04-18T17:03:30.509Z,75.81
2023-04-18T17:05:57.095Z,75.71
2023-04-18T17:08:25.757Z,75.51
2023-04-18T17:10:52.746Z,75.02
2023-04-18T17:13:19.235Z,74.75
2023-04-18T17:15:46.029Z,75.30
2023-04-18T17:18:12.598Z,75.84
2023-04-18T17:20:39.088Z,75.84
2023-04-18T17:23:05.480Z,76.17
2023-04-18T17:25:31.927Z,76.34
2023-04-18T17:27:58.630Z,76.69
2023-04-18T17:30:25.168Z,76.94
2023-04-18T17:32:51.692Z,76.99
2023-04-18T17:35:18.375Z,77.44
2023-04-18T17:37:46.568Z,77.47
2023-04-18T17:40:13.713Z,76.88
2023-04-18T17:42:40.238Z,77.19
2023-04-18T17:45:08.289Z,77.35
2023-04-18T17:47:36.324Z,77.13
2023-04-18T17:50:06.787Z,77.52
2023-04-18T17:52:33.288Z,77.48
2023-04-18T17:55:01.411Z,78.37
2023-04-18T17:57:30.284Z,77.97
2023-04-18T17:59:56.706Z,78.50
2023-04-18T18:02:23.584Z,78.59
2023-04-18T18:04:51.309Z,78.95
2023-04-18T18:07:18.288Z,78.78
2023-04-18T18:09:45.520Z,79.22
2023-04-18T18:12:12.404Z,79.78
2023-04-18T18:14:40.437Z,80.62
2023-04-18T18:17:06.906Z,80.94
2023-04-18T18:19:35.961Z,81.45
2023-04-18T18:22:02.462Z,81.90
2023-04-18T18:24:29.022Z,82.43
2023-04-18T18:26:56.280Z,82.95
2023-04-18T18:29:22.861Z,82.95
2023-04-18T18:31:49.405Z,82.81
2023-04-18T18:34:16.789Z,83.36
2023-04-18T18:36:43.259Z,84.11
2023-04-18T18:39:11.088Z,84.39
2023-04-18T18:41:37.724Z,84.55
2023-04-18T18:44:04.310Z,84.61
2023-04-18T18:46:30.938Z,85.06
2023-04-18T18:48:57.587Z,85.00
2023-04-18T18:51:24.062Z,84.88
2023-04-18T18:53:50.567Z,84.68
2023-04-18T18:56:17.013Z,84.56
2023-04-18T18:58:43.789Z,84.09
2023-04-18T19:01:11.478Z,84.50
2023-04-18T19:03:38.230Z,85.54
2023-04-18T19:06:06.899Z,86.04
2023-04-18T19:08:33.769Z,86.58
2023-04-18T19:11:00.413Z,87.01
2023-04-18T19:13:26.953Z,87.34
2023-04-18T19:15:53.467Z,87.30
2023-04-18T19:18:20.218Z,87.49
2023-04-18T19:20:47.011Z,87.09
2023-04-18T19:23:13.454Z,87.63
2023-04-18T19:25:40.051Z,87.78
2023-04-18T19:28:06.606Z,87.54
2023-04-18T19:30:33.142Z,87.99
2023-04-18T19:32:59.926Z,88.35
2023-04-18T19:35:27.858Z,88.72
2023-04-18T19:38:01.253Z,88.87
2023-04-18T19:40:28.578Z,89.19
2023-04-18T19:42:55.106Z,89.41
2023-04-18T19:45:21.535Z,89.42
2023-04-18T19:47:48.087Z,89.69
2023-04-18T19:50:14.698Z,88.86
2023-04-18T19:52:41.280Z,88.73
2023-04-18T19:55:08.177Z,88.94
2023-04-18T19:57:41.413Z,89.69
2023-04-18T20:00:12.880Z,90.20
2023-04-18T20:02:40.514Z,90.12
2023-04-18T20:05:08.198Z,90.89
2023-04-18T20:07:35.600Z,91.10
2023-04-18T20:10:02.055Z,91.28
2023-04-18T20:12:28.582Z,91.26
2023-04-18T20:14:55.593Z,91.28
2023-04-18T20:17:22.161Z,91.93
2023-04-18T20:19:49.736Z,91.75
2023-04-18T20:22:17.211Z,91.82
2023-04-18T20:24:44.988Z,91.83
2023-04-18T20:27:11.862Z,91.92
2023-04-18T20:29:38.362Z,92.10
2023-04-18T20:32:05.118Z,91.90
2023-04-18T20:34:32.081Z,92.54
2023-04-18T20:36:59.902Z,92.84
2023-04-18T20:39:26.795Z,92.73
2023-04-18T20:41:54.247Z,92.54
2023-04-18T20:44:21.744Z,92.31
2023-04-18T20:46:48.321Z,92.02
2023-04-18T20:49:14.899Z,92.12
2023-04-18T20:51:41.449Z,91.87
2023-04-18T20:54:07.887Z,92.98
2023-04-18T20:56:36.582Z,93.46
2023-04-18T20:59:04.701Z,93.03
2023-04-18T21:01:31.411Z,93.56
2023-04-18T21:03:58.364Z,94.24
2023-04-18T21:06:25.315Z,94.25
2023-04-18T21:08:51.764Z,94.74
2023-04-18T21:11:18.222Z,94.59
2023-04-18T21:13:44.700Z,95.33
2023-04-18T21:16:11.237Z,95.30
2023-04-18T21:18:37.707Z,95.39
2023-04-18T21:21:04.492Z,95.47
2023-04-18T21:23:31.079Z,94.96
2023-04-18T21:25:57.497Z,94.99
2023-04-18T21:28:23.901Z,95.11
2023-04-18T21:30:50.687Z,96.26
2023-04-18T21:33:17.159Z,96.20
2023-04-18T21:35:43.704Z,96.57
2023-04-18T21:38:10.134Z,96.32
2023-04-18T21:40:37.277Z,96.45
2023-04-18T21:43:03.798Z,96.61
2023-04-18T21:45:30.376Z,97.39
2023-04-18T21:47:56.870Z,97.74
2023-04-18T21:50:23.474Z,97.78
2023-04-18T21:52:49.960Z,97.81
2023-04-18T21:55:17.710Z,98.52
2023-04-18T21:57:44.153Z,97.97
2023-04-18T22:00:11.205Z,98.10
2023-04-18T22:02:40.057Z,98.39
2023-04-18T22:05:07.630Z,98.70
2023-04-18T22:07:38.518Z,99.03
2023-04-18T22:10:10.974Z,99.09
2023-04-18T22:12:37.672Z,98.71
2023-04-18T22:15:04.305Z,99.31
2023-04-18T22:17:31.416Z,99.69
2023-04-18T22:19:57.959Z,98.97
2023-04-18T22:22:24.449Z,99.32
2023-04-18T22:24:50.903Z,98.87
2023-04-18T22:27:17.379Z,99.17
2023-04-18T22:29:43.758Z,98.83
2023-04-18T22:32:10.205Z,99.38
2023-04-18T22:34:36.599Z,98.82
2023-04-18T22:37:03.031Z,99.34
2023-04-18T22:39:31.101Z,99.71
2023-04-18T22:41:57.520Z,99.55
2023-04-18T22:44:23.970Z,98.90
2023-04-18T22:46:50.776Z,98.73
2023-04-18T22:49:17.894Z,99.52
2023-04-18T22:51:46.237Z,99.60
2023-04-18T22:54:12.833Z,99.34
2023-04-18T22:56:39.518Z,99.14
2023-04-18T22:59:05.996Z,99.57
2023-04-18T23:01:32.504Z,99.46
2023-04-18T23:03:59.182Z,99.06
2023-04-18T23:06:27.908Z,99.45
2023-04-18T23:08:54.429Z,100.00
2023-04-18T23:11:21.556Z,100.00
2023-04-18T23:13:48.015Z,100.00
2023-04-18T23:16:14.572Z,99.81
2023-04-18T23:18:41.162Z,98.84
2023-04-18T23:21:07.681Z,99.33
2023-04-18T23:23:34.155Z,100.00
2023-04-18T23:26:00.722Z,100.00
2023-04-18T23:28:27.255Z,100.00
2023-04-18T23:30:53.669Z,100.00
2023-04-18T23:33:20.526Z,100.00
2023-04-18T23:35:46.971Z,100.00
2023-04-18T23:38:13.411Z,100.00
2023-04-18T23:40:39.806Z,100.00
2023-04-18T23:43:06.393Z,100.00
2023-04-18T23:45:32.819Z,100.00
2023-04-18T23:47:59.269Z,100.00
2023-04-18T23:50:25.798Z,100.00
2023-04-18T23:52:52.233Z,100.00
2023-04-18T23:55:18.694Z,100.00
2023-04-18T23:57:45.105Z,100.00
